OAL017 LGAV-LGMK
Flight info
| Callsign | OAL017 |
|---|---|
| Flight time | 0h 21m |
| Altitude | 15000 |
| Route | KEA L995 VARIX |
| Aircraft | A320/M-SDE3FGHIRWY/LB1 |
Departure
| Time | 2026-04-22 07:47 |
|---|---|
| Airport | Athens Eleftherios Venizelos International Airport (LGAV) |
Arrival
| Time | 2026-04-22 08:08 |
|---|---|
| Airport | Mykonos Island National Airport (LGMK) |
| Time | Latitude | Longitude | Altitude | Speed | Heading |
|---|---|---|---|---|---|
| 2026-04-22 07:41 | 37.93048 | 23.94280 | 301 ft | 0 kts | 37° |
| 2026-04-22 07:43 | 37.93028 | 23.94261 | 302 ft | 4 kts | 37° |
| 2026-04-22 07:43 | 37.93004 | 23.94238 | 301 ft | 4 kts | 37° |
| 2026-04-22 07:44 | 37.92981 | 23.94212 | 302 ft | 4 kts | 81° |
| 2026-04-22 07:44 | 37.92981 | 23.94193 | 301 ft | 0 kts | 124° |
| 2026-04-22 07:44 | 37.92975 | 23.94205 | 301 ft | 5 kts | 124° |
| 2026-04-22 07:44 | 37.92934 | 23.94279 | 301 ft | 15 kts | 124° |
| 2026-04-22 07:45 | 37.92853 | 23.94414 | 303 ft | 23 kts | 130° |
| 2026-04-22 07:45 | 37.92700 | 23.94369 | 304 ft | 28 kts | 214° |
| 2026-04-22 07:45 | 37.92568 | 23.94281 | 306 ft | 12 kts | 166° |
| 2026-04-22 07:45 | 37.92537 | 23.94316 | 305 ft | 0 kts | 133° |
| 2026-04-22 07:46 | 37.92535 | 23.94318 | 305 ft | 3 kts | 133° |
| 2026-04-22 07:46 | 37.92510 | 23.94358 | 307 ft | 9 kts | 127° |
| 2026-04-22 07:46 | 37.92494 | 23.94455 | 310 ft | 16 kts | 66° |
| 2026-04-22 07:46 | 37.92607 | 23.94568 | 308 ft | 31 kts | 36° |
| 2026-04-22 07:47 | 37.93038 | 23.94987 | 295 ft | 123 kts | 38° |
| 2026-04-22 07:47 | 37.93911 | 23.95831 | 443 ft | 179 kts | 38° |
| 2026-04-22 07:47 | 37.94566 | 23.96507 | 950 ft | 188 kts | 40° |
| 2026-04-22 07:47 | 37.95592 | 23.97624 | 1851 ft | 200 kts | 41° |
| 2026-04-22 07:48 | 37.96697 | 23.98779 | 2745 ft | 213 kts | 36° |
| 2026-04-22 07:48 | 37.97916 | 23.99930 | 3387 ft | 223 kts | 33° |
| 2026-04-22 07:48 | 37.99210 | 24.01115 | 4178 ft | 229 kts | 32° |
| 2026-04-22 07:48 | 38.00520 | 24.02323 | 4961 ft | 236 kts | 32° |
| 2026-04-22 07:49 | 38.01833 | 24.03552 | 5733 ft | 240 kts | 32° |
| 2026-04-22 07:49 | 38.03179 | 24.04828 | 6529 ft | 243 kts | 32° |
| 2026-04-22 07:49 | 38.04537 | 24.06132 | 7297 ft | 246 kts | 33° |
| 2026-04-22 07:49 | 38.05911 | 24.07458 | 8074 ft | 249 kts | 33° |
| 2026-04-22 07:50 | 38.07299 | 24.08801 | 8854 ft | 253 kts | 33° |
| 2026-04-22 07:50 | 38.08607 | 24.10316 | 9630 ft | 261 kts | 54° |
| 2026-04-22 07:50 | 38.09168 | 24.12517 | 10322 ft | 269 kts | 90° |
| 2026-04-22 07:50 | 38.08724 | 24.14808 | 10977 ft | 270 kts | 123° |
| 2026-04-22 07:51 | 38.07460 | 24.16516 | 11642 ft | 265 kts | 155° |
| 2026-04-22 07:51 | 38.05758 | 24.17274 | 12334 ft | 259 kts | 175° |
| 2026-04-22 07:51 | 38.03978 | 24.17724 | 13074 ft | 262 kts | 175° |
| 2026-04-22 07:51 | 38.02126 | 24.18174 | 13475 ft | 282 kts | 176° |
| 2026-04-22 07:52 | 38.00115 | 24.18655 | 13728 ft | 306 kts | 175° |
| 2026-04-22 07:52 | 37.97947 | 24.19180 | 13922 ft | 329 kts | 174° |
| 2026-04-22 07:52 | 37.95618 | 24.19756 | 14070 ft | 353 kts | 174° |
| 2026-04-22 07:52 | 37.93142 | 24.20383 | 14333 ft | 370 kts | 173° |
| 2026-04-22 07:53 | 37.90592 | 24.21041 | 14801 ft | 377 kts | 173° |
| 2026-04-22 07:53 | 37.88008 | 24.21713 | 14934 ft | 379 kts | 173° |
| 2026-04-22 07:53 | 37.85414 | 24.22384 | 14976 ft | 381 kts | 173° |
| 2026-04-22 07:53 | 37.82820 | 24.23050 | 14980 ft | 381 kts | 173° |
| 2026-04-22 07:54 | 37.80222 | 24.23711 | 14979 ft | 381 kts | 173° |
| 2026-04-22 07:54 | 37.77622 | 24.24370 | 14978 ft | 381 kts | 174° |
| 2026-04-22 07:54 | 37.75026 | 24.25026 | 14979 ft | 381 kts | 174° |
| 2026-04-22 07:54 | 37.72426 | 24.25680 | 14982 ft | 381 kts | 174° |
| 2026-04-22 07:55 | 37.69826 | 24.26332 | 14986 ft | 381 kts | 174° |
| 2026-04-22 07:55 | 37.67229 | 24.26982 | 14980 ft | 381 kts | 174° |
| 2026-04-22 07:55 | 37.64631 | 24.27632 | 14961 ft | 381 kts | 173° |
| 2026-04-22 07:55 | 37.62037 | 24.28338 | 14966 ft | 384 kts | 168° |
| 2026-04-22 07:56 | 37.59542 | 24.29598 | 14972 ft | 390 kts | 155° |
| 2026-04-22 07:56 | 37.57313 | 24.31490 | 14973 ft | 395 kts | 142° |
| 2026-04-22 07:56 | 37.55410 | 24.33993 | 14970 ft | 398 kts | 129° |
| 2026-04-22 07:56 | 37.53963 | 24.36982 | 14976 ft | 401 kts | 116° |
| 2026-04-22 07:57 | 37.53005 | 24.40280 | 14969 ft | 402 kts | 108° |
| 2026-04-22 07:57 | 37.52144 | 24.43631 | 14972 ft | 402 kts | 108° |
| 2026-04-22 07:57 | 37.51271 | 24.47003 | 14974 ft | 404 kts | 108° |
| 2026-04-22 07:57 | 37.50404 | 24.50340 | 14785 ft | 399 kts | 109° |
| 2026-04-22 07:58 | 37.49540 | 24.53646 | 14445 ft | 395 kts | 109° |
| 2026-04-22 07:58 | 37.48675 | 24.56950 | 13873 ft | 398 kts | 109° |
| 2026-04-22 07:58 | 37.47806 | 24.60257 | 13234 ft | 398 kts | 109° |
| 2026-04-22 07:58 | 37.46938 | 24.63556 | 12640 ft | 396 kts | 109° |
| 2026-04-22 07:59 | 37.46074 | 24.66838 | 12025 ft | 394 kts | 109° |
| 2026-04-22 07:59 | 37.45214 | 24.70100 | 11414 ft | 391 kts | 109° |
| 2026-04-22 07:59 | 37.44358 | 24.73339 | 10795 ft | 389 kts | 109° |
| 2026-04-22 07:59 | 37.43515 | 24.76529 | 10509 ft | 377 kts | 109° |
| 2026-04-22 08:00 | 37.42707 | 24.79593 | 10382 ft | 361 kts | 109° |
| 2026-04-22 08:00 | 37.41932 | 24.82528 | 10258 ft | 346 kts | 109° |
| 2026-04-22 08:00 | 37.41187 | 24.85347 | 10131 ft | 333 kts | 109° |
| 2026-04-22 08:00 | 37.40465 | 24.88071 | 9995 ft | 323 kts | 109° |
| 2026-04-22 08:01 | 37.39769 | 24.90699 | 9973 ft | 312 kts | 109° |
| 2026-04-22 08:01 | 37.39086 | 24.93278 | 9974 ft | 310 kts | 109° |
| 2026-04-22 08:01 | 37.38404 | 24.95850 | 9974 ft | 310 kts | 109° |
| 2026-04-22 08:01 | 37.37732 | 24.98389 | 9972 ft | 299 kts | 109° |
| 2026-04-22 08:02 | 37.37415 | 25.00906 | 9953 ft | 290 kts | 87° |
| 2026-04-22 08:02 | 37.37849 | 25.03338 | 9396 ft | 285 kts | 62° |
| 2026-04-22 08:02 | 37.38996 | 25.05315 | 8752 ft | 279 kts | 38° |
| 2026-04-22 08:02 | 37.40577 | 25.06669 | 8104 ft | 274 kts | 27° |
| 2026-04-22 08:03 | 37.42210 | 25.07906 | 7471 ft | 273 kts | 28° |
| 2026-04-22 08:03 | 37.43832 | 25.09144 | 6876 ft | 272 kts | 28° |
| 2026-04-22 08:03 | 37.45440 | 25.10380 | 6263 ft | 270 kts | 29° |
| 2026-04-22 08:03 | 37.47054 | 25.11624 | 5528 ft | 272 kts | 29° |
| 2026-04-22 08:04 | 37.48677 | 25.12873 | 4846 ft | 272 kts | 28° |
| 2026-04-22 08:04 | 37.50232 | 25.14116 | 4543 ft | 256 kts | 36° |
| 2026-04-22 08:04 | 37.51381 | 25.15714 | 4370 ft | 241 kts | 57° |
| 2026-04-22 08:04 | 37.52036 | 25.17669 | 3778 ft | 245 kts | 73° |
| 2026-04-22 08:05 | 37.52514 | 25.19727 | 3193 ft | 245 kts | 73° |
| 2026-04-22 08:05 | 37.52983 | 25.21750 | 2796 ft | 229 kts | 76° |
| 2026-04-22 08:05 | 37.53104 | 25.23658 | 2749 ft | 213 kts | 98° |
| 2026-04-22 08:05 | 37.52844 | 25.25433 | 2709 ft | 206 kts | 102° |
| 2026-04-22 08:06 | 37.52485 | 25.27136 | 2590 ft | 195 kts | 115° |
| 2026-04-22 08:06 | 37.51782 | 25.28523 | 2314 ft | 183 kts | 133° |
| 2026-04-22 08:06 | 37.50850 | 25.29528 | 2060 ft | 171 kts | 148° |
| 2026-04-22 08:06 | 37.49901 | 25.30338 | 1821 ft | 159 kts | 147° |
| 2026-04-22 08:07 | 37.49011 | 25.31102 | 1596 ft | 149 kts | 147° |
| 2026-04-22 08:07 | 37.48176 | 25.31816 | 1387 ft | 143 kts | 147° |
| 2026-04-22 08:07 | 37.47363 | 25.32511 | 1173 ft | 140 kts | 146° |
| 2026-04-22 08:07 | 37.46567 | 25.33194 | 977 ft | 137 kts | 146° |
| 2026-04-22 08:08 | 37.45766 | 25.33826 | 765 ft | 135 kts | 155° |
| 2026-04-22 08:08 | 37.44890 | 25.34221 | 532 ft | 133 kts | 165° |
| 2026-04-22 08:08 | 37.44021 | 25.34592 | 411 ft | 131 kts | 160° |
| 2026-04-22 08:08 | 37.43345 | 25.34883 | 410 ft | 44 kts | 160° |
| 2026-04-22 08:09 | 37.43120 | 25.34989 | 413 ft | 32 kts | 160° |
| 2026-04-22 08:09 | 37.42933 | 25.35075 | 413 ft | 20 kts | 160° |
| 2026-04-22 08:09 | 37.42830 | 25.35117 | 408 ft | 16 kts | 169° |
| 2026-04-22 08:09 | 37.42730 | 25.35138 | 410 ft | 7 kts | 133° |
| 2026-04-22 08:10 | 37.42738 | 25.35153 | 410 ft | 4 kts | 27° |
| 2026-04-22 08:10 | 37.42786 | 25.35141 | 409 ft | 11 kts | 341° |
| 2026-04-22 08:10 | 37.42889 | 25.35097 | 412 ft | 20 kts | 341° |
| 2026-04-22 08:10 | 37.43048 | 25.35029 | 414 ft | 28 kts | 341° |
| 2026-04-22 08:11 | 37.43230 | 25.34949 | 413 ft | 21 kts | 340° |
| 2026-04-22 08:11 | 37.43371 | 25.34878 | 411 ft | 24 kts | 319° |
| 2026-04-22 08:11 | 37.43444 | 25.34748 | 408 ft | 14 kts | 321° |
| 2026-04-22 08:11 | 37.43468 | 25.34683 | 407 ft | 9 kts | 247° |
| 2026-04-22 08:12 | 37.43463 | 25.34661 | 405 ft | 2 kts | 253° |
| 2026-04-22 08:12 | 37.43463 | 25.34660 | 405 ft | 0 kts | 253° |